createdAt,value
2022-12-03T00:00:00.627Z,18.90
2022-12-03T00:02:27.769Z,16.43
2022-12-03T00:04:54.984Z,17.17
2022-12-03T00:07:22.224Z,16.67
2022-12-03T00:09:49.128Z,16.60
2022-12-03T00:12:16.198Z,15.13
2022-12-03T00:14:52.505Z,13.90
2022-12-03T00:17:19.586Z,14.20
2022-12-03T00:19:46.635Z,15.77
2022-12-03T00:22:13.820Z,14.67
2022-12-03T00:24:40.751Z,16.70
2022-12-03T00:27:07.874Z,16.97
2022-12-03T00:29:34.992Z,14.60
2022-12-03T00:32:02.189Z,13.97
2022-12-03T00:34:29.843Z,15.93
2022-12-03T00:36:56.749Z,13.73
2022-12-03T00:39:23.840Z,15.10
2022-12-03T00:41:51.617Z,21.83
2022-12-03T00:44:18.687Z,14.50
2022-12-03T00:46:45.775Z,16.73
2022-12-03T00:49:12.919Z,18.73
2022-12-03T00:51:39.996Z,14.70
2022-12-03T00:54:06.930Z,17.10
2022-12-03T00:56:34.398Z,13.63
2022-12-03T00:59:01.841Z,15.77
2022-12-03T01:01:29.031Z,14.50
2022-12-03T01:03:56.154Z,14.17
2022-12-03T01:06:23.374Z,14.23
2022-12-03T01:08:50.293Z,13.67
2022-12-03T01:11:36.196Z,14.60
2022-12-03T01:14:08.983Z,14.03
2022-12-03T01:16:36.564Z,15.13
2022-12-03T01:19:05.534Z,13.97
2022-12-03T01:21:33.704Z,16.73
2022-12-03T01:24:01.077Z,14.57
2022-12-03T01:26:28.171Z,14.60
2022-12-03T01:28:55.288Z,16.50
2022-12-03T01:31:40.701Z,13.70
2022-12-03T01:34:07.704Z,16.37
2022-12-03T01:36:34.862Z,16.03
2022-12-03T01:39:03.943Z,14.97
2022-12-03T01:41:32.815Z,13.60
2022-12-03T01:44:01.300Z,15.03
2022-12-03T01:46:37.921Z,16.93
2022-12-03T01:49:05.537Z,18.03
2022-12-03T01:51:32.493Z,15.10
2022-12-03T01:54:01.000Z,17.87
2022-12-03T01:56:28.466Z,16.40
2022-12-03T01:58:55.431Z,18.00
2022-12-03T02:01:22.468Z,17.90
2022-12-03T02:03:49.794Z,17.17
2022-12-03T02:06:20.588Z,16.40
2022-12-03T02:08:48.976Z,17.30
2022-12-03T02:11:31.676Z,17.60
2022-12-03T02:14:12.982Z,14.00
2022-12-03T02:16:41.932Z,17.90
2022-12-03T02:19:24.732Z,22.43
2022-12-03T02:22:10.571Z,20.07
2022-12-03T02:25:06.984Z,16.37
2022-12-03T02:27:33.985Z,15.40
2022-12-03T02:30:00.931Z,19.70
2022-12-03T02:32:28.076Z,19.80
2022-12-03T02:34:55.378Z,20.57
2022-12-03T02:37:32.752Z,15.93
2022-12-03T02:40:09.160Z,15.67
2022-12-03T02:42:37.204Z,13.10
2022-12-03T02:45:19.145Z,16.77
2022-12-03T02:47:58.973Z,14.90
2022-12-03T02:50:32.282Z,21.83
2022-12-03T02:53:04.826Z,16.17
2022-12-03T02:55:37.076Z,17.27
2022-12-03T02:58:05.857Z,17.87
2022-12-03T03:00:35.551Z,17.27
2022-12-03T03:03:04.510Z,18.10
2022-12-03T03:05:35.970Z,15.03
2022-12-03T03:08:04.114Z,14.40
2022-12-03T03:10:33.522Z,18.07
2022-12-03T03:13:07.537Z,16.27
2022-12-03T03:15:38.064Z,16.17
2022-12-03T03:18:08.515Z,14.10
2022-12-03T03:20:36.711Z,14.20
2022-12-03T03:23:14.466Z,14.50
2022-12-03T03:25:49.568Z,13.67
2022-12-03T03:28:17.528Z,16.10
2022-12-03T03:30:45.282Z,15.30
2022-12-03T03:33:15.480Z,16.73
2022-12-03T03:35:45.163Z,13.20
2022-12-03T03:38:12.783Z,17.30
2022-12-03T03:40:39.972Z,16.87
2022-12-03T03:43:07.835Z,21.30
2022-12-03T03:45:35.188Z,17.87
2022-12-03T03:48:02.319Z,14.10
2022-12-03T03:50:32.101Z,13.90
2022-12-03T03:53:00.997Z,16.70
2022-12-03T03:55:29.089Z,17.53
2022-12-03T03:57:56.417Z,18.00
2022-12-03T04:00:23.918Z,15.00
2022-12-03T04:02:53.730Z,17.60
2022-12-03T04:05:24.029Z,13.97
2022-12-03T04:07:53.339Z,16.80
2022-12-03T04:10:38.763Z,19.60
2022-12-03T04:13:06.480Z,12.60
2022-12-03T04:15:33.463Z,14.90
2022-12-03T04:18:19.665Z,16.37
2022-12-03T04:20:47.133Z,12.40
2022-12-03T04:23:14.178Z,13.50
2022-12-03T04:25:59.956Z,16.60
2022-12-03T04:28:48.500Z,12.80
2022-12-03T04:31:33.906Z,15.37
2022-12-03T04:34:19.376Z,17.47
2022-12-03T04:36:47.041Z,13.57
2022-12-03T04:39:15.578Z,16.93
2022-12-03T04:41:43.278Z,12.90
2022-12-03T04:44:29.251Z,13.17
2022-12-03T04:46:56.299Z,14.37
2022-12-03T04:49:23.752Z,15.47
2022-12-03T04:51:50.715Z,14.87
2022-12-03T04:54:17.883Z,13.03
2022-12-03T04:56:45.098Z,10.50
2022-12-03T04:59:15.992Z,13.73
2022-12-03T05:01:44.719Z,14.23
2022-12-03T05:04:13.523Z,15.50
2022-12-03T05:06:42.047Z,17.03
2022-12-03T05:09:09.973Z,16.80
2022-12-03T05:11:37.166Z,13.57
2022-12-03T05:14:04.639Z,13.60
2022-12-03T05:16:34.516Z,13.63
2022-12-03T05:19:02.069Z,18.80
2022-12-03T05:21:29.264Z,16.37
2022-12-03T05:23:57.189Z,12.40
2022-12-03T05:26:24.230Z,15.20
2022-12-03T05:28:51.453Z,18.80
2022-12-03T05:31:18.464Z,15.17
2022-12-03T05:33:45.532Z,13.47
2022-12-03T05:36:13.155Z,16.87
2022-12-03T05:41:46.370Z,16.30
2022-12-03T05:44:20.101Z,20.20
2022-12-03T05:46:50.307Z,13.40
2022-12-03T05:49:17.594Z,14.00
2022-12-03T05:51:44.587Z,15.23
2022-12-03T05:54:11.764Z,14.83
2022-12-03T05:56:38.720Z,15.77
2022-12-03T05:59:05.939Z,14.80
2022-12-03T06:01:33.095Z,17.03
2022-12-03T06:04:00.274Z,14.67
2022-12-03T06:06:27.304Z,14.80
2022-12-03T06:08:54.484Z,17.10
2022-12-03T06:11:24.499Z,12.03
2022-12-03T06:13:52.307Z,13.30
2022-12-03T06:16:19.587Z,12.43
2022-12-03T06:18:46.556Z,12.90
2022-12-03T06:21:13.719Z,13.80
2022-12-03T06:23:44.708Z,14.67
2022-12-03T06:26:12.860Z,14.47
2022-12-03T06:28:42.265Z,16.00
2022-12-03T06:31:10.058Z,16.93
2022-12-03T06:33:37.230Z,13.90
2022-12-03T06:36:06.520Z,14.50
2022-12-03T06:38:33.771Z,11.60
2022-12-03T06:41:00.803Z,16.20
2022-12-03T06:43:27.935Z,13.20
2022-12-03T06:45:55.224Z,16.00
2022-12-03T06:48:22.447Z,13.10
2022-12-03T06:50:49.458Z,14.77
2022-12-03T06:53:17.315Z,13.90
2022-12-03T06:55:44.500Z,11.90
2022-12-03T06:58:11.614Z,14.87
2022-12-03T07:00:38.592Z,18.30
2022-12-03T07:03:08.401Z,14.77
2022-12-03T07:05:35.519Z,25.70
2022-12-03T07:08:03.684Z,32.83
2022-12-03T07:10:31.138Z,32.03
2022-12-03T07:12:58.109Z,39.23
2022-12-03T07:15:25.371Z,14.27
2022-12-03T07:17:52.451Z,20.00
2022-12-03T07:20:20.046Z,21.13
2022-12-03T07:22:47.202Z,13.83
2022-12-03T07:25:19.515Z,37.40
2022-12-03T07:27:49.983Z,14.00
2022-12-03T07:30:17.214Z,16.20
2022-12-03T07:32:45.342Z,22.17
2022-12-03T07:35:12.310Z,17.67
2022-12-03T07:37:40.323Z,17.40
2022-12-03T07:40:08.811Z,14.33
2022-12-03T07:42:36.114Z,12.93
2022-12-03T07:45:04.123Z,16.43
2022-12-03T07:47:31.505Z,13.20
2022-12-03T07:49:59.022Z,14.40
2022-12-03T07:52:27.180Z,14.87
2022-12-03T07:54:54.305Z,16.77
2022-12-03T07:57:23.792Z,12.67
2022-12-03T07:59:50.768Z,14.70
2022-12-03T08:02:21.419Z,14.43
2022-12-03T08:04:49.008Z,15.33
2022-12-03T08:07:17.664Z,12.17
2022-12-03T08:09:44.771Z,15.30
2022-12-03T08:12:40.302Z,16.63
2022-12-03T08:15:23.932Z,13.97
2022-12-03T08:18:00.486Z,15.60
2022-12-03T08:20:36.549Z,11.70
2022-12-03T08:23:20.763Z,13.27
2022-12-03T08:25:49.485Z,11.67
2022-12-03T08:28:23.576Z,13.13
2022-12-03T08:31:19.823Z,13.47
2022-12-03T08:33:50.967Z,15.60
2022-12-03T08:36:25.309Z,13.50
2022-12-03T08:39:25.659Z,15.40
2022-12-03T08:42:23.183Z,12.10
2022-12-03T08:44:50.140Z,14.90
2022-12-03T08:47:21.723Z,13.60
2022-12-03T08:50:17.584Z,15.73
2022-12-03T08:52:44.755Z,12.80
2022-12-03T08:55:37.008Z,15.90
2022-12-03T08:58:23.494Z,14.83
2022-12-03T09:01:24.418Z,14.10
2022-12-03T09:03:55.236Z,13.73
2022-12-03T09:06:22.989Z,15.50
2022-12-03T09:08:50.341Z,12.57
2022-12-03T09:11:17.364Z,14.10
2022-12-03T09:13:45.309Z,18.03
2022-12-03T09:16:12.272Z,15.37
2022-12-03T09:18:39.639Z,13.30
2022-12-03T09:21:06.900Z,13.33
2022-12-03T09:23:33.869Z,14.47
2022-12-03T09:26:00.988Z,16.63
2022-12-03T09:28:27.950Z,17.27
2022-12-03T09:30:55.177Z,13.33
2022-12-03T09:33:22.346Z,17.30
2022-12-03T09:35:49.372Z,12.87
2022-12-03T09:38:16.467Z,11.47
2022-12-03T09:40:43.639Z,13.00
2022-12-03T09:43:12.511Z,13.73
2022-12-03T09:45:39.705Z,13.20
2022-12-03T09:48:07.129Z,11.30
2022-12-03T09:50:34.463Z,13.73
2022-12-03T09:53:04.027Z,13.30
2022-12-03T09:55:31.625Z,14.73
2022-12-03T09:58:18.986Z,14.17
2022-12-03T10:00:52.307Z,14.83
2022-12-03T10:03:29.459Z,13.10
2022-12-03T10:05:58.495Z,14.70
2022-12-03T10:08:32.969Z,14.43
2022-12-03T10:11:00.046Z,12.30
2022-12-03T10:13:30.808Z,14.63
2022-12-03T10:16:16.444Z,14.00
2022-12-03T10:18:51.405Z,11.90
2022-12-03T10:21:32.390Z,12.03
2022-12-03T10:24:28.920Z,12.00
2022-12-03T10:27:02.462Z,14.97
2022-12-03T10:29:34.686Z,13.00
2022-12-03T10:32:10.400Z,12.73
2022-12-03T10:34:42.559Z,15.10
2022-12-03T10:37:22.858Z,14.27
2022-12-03T10:40:09.359Z,15.10
2022-12-03T10:42:41.510Z,12.33
2022-12-03T10:45:26.506Z,14.87
2022-12-03T10:48:27.349Z,14.70
2022-12-03T10:51:10.524Z,20.50
2022-12-03T10:53:40.546Z,14.23
2022-12-03T10:56:15.054Z,15.03
2022-12-03T10:58:44.392Z,16.37
2022-12-03T11:01:25.048Z,15.13
2022-12-03T11:03:53.839Z,17.23
2022-12-03T11:06:23.378Z,16.80
2022-12-03T11:08:58.365Z,13.83
2022-12-03T11:11:31.496Z,14.90
2022-12-03T11:14:03.046Z,12.77
2022-12-03T11:16:42.139Z,12.63
2022-12-03T11:19:39.156Z,39.27
2022-12-03T11:22:06.185Z,17.50
2022-12-03T11:24:36.468Z,31.63
2022-12-03T11:27:03.327Z,15.40
2022-12-03T11:29:54.927Z,12.27
2022-12-03T11:32:42.798Z,12.70
2022-12-03T11:35:24.651Z,21.70
2022-12-03T11:37:52.290Z,16.20
2022-12-03T11:40:19.123Z,19.60
2022-12-03T11:42:48.343Z,18.97
2022-12-03T11:45:36.791Z,18.93
2022-12-03T11:48:15.544Z,13.70
2022-12-03T11:50:53.083Z,14.90
2022-12-03T11:53:31.571Z,16.00
2022-12-03T11:56:11.354Z,15.27
2022-12-03T11:58:42.790Z,16.60
2022-12-03T12:01:10.190Z,15.13
2022-12-03T12:03:43.855Z,16.60
2022-12-03T12:06:18.200Z,15.80
2022-12-03T12:08:51.289Z,16.57
2022-12-03T12:11:33.672Z,16.30
2022-12-03T12:14:03.454Z,15.77
2022-12-03T12:16:53.738Z,13.97
2022-12-03T12:19:41.354Z,17.77
2022-12-03T12:22:14.444Z,15.90
2022-12-03T12:24:43.440Z,16.67
2022-12-03T12:27:24.120Z,17.07
2022-12-03T12:29:58.486Z,16.10
2022-12-03T12:32:30.579Z,15.90
2022-12-03T12:35:17.730Z,15.70
2022-12-03T12:37:59.212Z,19.07
2022-12-03T12:40:31.874Z,15.07
2022-12-03T12:43:14.221Z,15.80
2022-12-03T12:45:44.217Z,16.30
2022-12-03T12:48:30.964Z,17.43
2022-12-03T12:51:14.642Z,16.27
2022-12-03T12:53:45.209Z,15.40
2022-12-03T12:56:32.022Z,15.00
2022-12-03T12:59:16.664Z,14.30
2022-12-03T13:01:47.752Z,15.37
2022-12-03T13:04:24.032Z,14.90
2022-12-03T13:06:54.434Z,14.87
2022-12-03T13:09:24.912Z,15.60
2022-12-03T13:12:04.156Z,17.30
2022-12-03T13:14:37.130Z,15.40
2022-12-03T13:17:18.910Z,12.67
2022-12-03T13:19:49.310Z,14.20
2022-12-03T13:22:22.425Z,13.57
2022-12-03T13:24:56.145Z,12.50
2022-12-03T13:27:30.982Z,17.37
2022-12-03T13:30:15.802Z,15.03
2022-12-03T13:32:43.670Z,17.00
2022-12-03T13:35:10.508Z,16.90
2022-12-03T13:37:38.519Z,15.70
2022-12-03T13:40:28.885Z,12.20
2022-12-03T13:42:56.957Z,11.50
2022-12-03T13:45:24.830Z,16.53
2022-12-03T13:48:31.762Z,15.53
2022-12-03T13:51:14.332Z,15.60
2022-12-03T13:53:41.516Z,14.50
2022-12-03T13:56:29.073Z,16.00
2022-12-03T13:58:59.497Z,11.33
2022-12-03T14:01:27.795Z,10.80
2022-12-03T14:03:54.851Z,13.40
2022-12-03T14:06:22.168Z,12.10
2022-12-03T14:08:49.381Z,13.73
2022-12-03T14:11:34.490Z,12.80
2022-12-03T14:14:01.833Z,12.10
2022-12-03T14:16:29.065Z,17.67
2022-12-03T14:18:56.195Z,14.03
2022-12-03T14:21:23.149Z,14.30
2022-12-03T14:23:50.138Z,14.37
2022-12-03T14:26:17.186Z,14.50
2022-12-03T14:28:44.176Z,16.57
2022-12-03T14:31:11.591Z,12.97
2022-12-03T14:33:38.757Z,14.10
2022-12-03T14:36:06.257Z,15.77
2022-12-03T14:38:33.302Z,14.40
2022-12-03T14:41:00.254Z,15.87
2022-12-03T14:43:27.218Z,14.40
2022-12-03T14:45:54.315Z,11.40
2022-12-03T14:48:21.474Z,15.30
2022-12-03T14:50:48.496Z,14.60
2022-12-03T14:53:15.735Z,13.77
2022-12-03T14:55:42.858Z,16.73
2022-12-03T14:58:10.015Z,15.37
2022-12-03T15:00:37.007Z,14.90
2022-12-03T15:03:04.200Z,15.33
2022-12-03T15:05:31.235Z,16.87
2022-12-03T15:07:58.257Z,18.80
2022-12-03T15:10:25.222Z,17.70
2022-12-03T15:12:52.177Z,15.70
2022-12-03T15:15:19.111Z,17.30
2022-12-03T15:17:47.660Z,18.63
2022-12-03T15:20:15.295Z,14.60
2022-12-03T15:22:42.900Z,15.77
2022-12-03T15:25:10.428Z,23.30
2022-12-03T15:27:38.081Z,15.10
2022-12-03T15:30:06.966Z,16.63
2022-12-03T15:32:34.573Z,14.23
2022-12-03T15:35:01.880Z,13.67
2022-12-03T15:37:29.446Z,14.10
2022-12-03T15:39:56.843Z,15.13
2022-12-03T15:42:24.005Z,12.90
2022-12-03T15:44:50.929Z,12.30
2022-12-03T15:47:18.166Z,14.83
2022-12-03T15:49:45.328Z,13.83
2022-12-03T15:52:12.488Z,12.70
2022-12-03T15:54:39.467Z,15.03
2022-12-03T15:57:06.592Z,14.43
2022-12-03T15:59:33.586Z,13.80
2022-12-03T16:02:02.760Z,15.73
2022-12-03T16:04:29.783Z,16.03
2022-12-03T16:06:56.739Z,16.13
2022-12-03T16:09:27.619Z,16.50
2022-12-03T16:11:55.434Z,19.80
2022-12-03T16:14:22.384Z,17.30
2022-12-03T16:16:49.537Z,16.20
2022-12-03T16:19:16.497Z,19.23
2022-12-03T16:21:43.650Z,14.83
2022-12-03T16:24:10.944Z,16.93
2022-12-03T16:26:37.965Z,15.47
2022-12-03T16:29:04.950Z,15.40
2022-12-03T16:31:32.445Z,19.37
2022-12-03T16:33:59.431Z,14.00
2022-12-03T16:36:29.107Z,17.80
2022-12-03T16:38:56.083Z,16.03
2022-12-03T16:41:23.406Z,14.47
2022-12-03T16:43:56.129Z,17.23
2022-12-03T16:46:26.467Z,13.20
2022-12-03T16:48:58.985Z,16.37
2022-12-03T16:51:28.474Z,15.33
2022-12-03T16:53:55.684Z,16.27
2022-12-03T16:56:22.994Z,20.03
2022-12-03T16:58:49.989Z,17.90
2022-12-03T17:01:17.183Z,17.97
2022-12-03T17:03:44.274Z,15.90
2022-12-03T17:06:11.444Z,16.93
2022-12-03T17:08:39.709Z,17.70
2022-12-03T17:11:08.328Z,18.83
2022-12-03T17:13:35.348Z,19.53
2022-12-03T17:16:02.454Z,20.47
2022-12-03T17:18:29.468Z,22.50
2022-12-03T17:20:56.607Z,21.53
2022-12-03T17:23:23.718Z,19.93
2022-12-03T17:25:50.694Z,22.97
2022-12-03T17:28:17.864Z,21.60
2022-12-03T17:30:45.708Z,17.83
2022-12-03T17:33:12.971Z,17.30
2022-12-03T17:35:39.976Z,20.90
2022-12-03T17:38:07.147Z,18.93
2022-12-03T17:40:34.122Z,18.60
2022-12-03T17:43:01.500Z,20.60
2022-12-03T17:45:28.808Z,20.80
2022-12-03T17:47:56.027Z,18.30
2022-12-03T17:50:25.137Z,18.00
2022-12-03T17:52:54.077Z,18.93
2022-12-03T17:55:31.025Z,19.03
2022-12-03T17:58:04.354Z,19.97
2022-12-03T18:00:32.227Z,18.10
2022-12-03T18:02:59.195Z,19.37
2022-12-03T18:05:26.311Z,22.50
2022-12-03T18:07:53.484Z,21.67
2022-12-03T18:10:20.519Z,20.60
2022-12-03T18:12:47.674Z,18.27
2022-12-03T18:15:14.826Z,20.43
2022-12-03T18:17:41.980Z,18.10
2022-12-03T18:20:09.246Z,19.40
2022-12-03T18:22:36.900Z,22.47
2022-12-03T18:25:04.932Z,21.40
2022-12-03T18:27:32.230Z,23.13
2022-12-03T18:30:00.677Z,26.07
2022-12-03T18:32:29.593Z,32.43
2022-12-03T18:34:57.994Z,20.77
2022-12-03T18:37:29.704Z,23.90
2022-12-03T18:39:58.303Z,23.50
2022-12-03T18:42:25.967Z,23.07
2022-12-03T18:44:56.033Z,16.13
2022-12-03T18:47:28.982Z,22.10
2022-12-03T18:49:56.577Z,25.00
2022-12-03T18:52:25.074Z,19.97
2022-12-03T18:54:52.821Z,18.90
2022-12-03T18:57:19.938Z,19.17
2022-12-03T18:59:47.121Z,21.80
2022-12-03T19:05:09.148Z,18.67
2022-12-03T19:07:36.865Z,25.27
2022-12-03T19:10:04.628Z,22.60
2022-12-03T19:12:32.170Z,19.97
2022-12-03T19:14:59.307Z,20.67
2022-12-03T19:17:27.555Z,19.47
2022-12-03T19:19:55.626Z,20.57
2022-12-03T19:22:23.814Z,19.80
2022-12-03T19:24:52.178Z,21.07
2022-12-03T19:27:19.324Z,19.77
2022-12-03T19:29:49.412Z,18.20
2022-12-03T19:32:16.563Z,19.67
2022-12-03T19:34:43.714Z,22.67
2022-12-03T19:37:10.838Z,22.07
2022-12-03T19:39:37.824Z,23.67
2022-12-03T19:42:04.996Z,21.93
2022-12-03T19:44:32.018Z,21.23
2022-12-03T19:46:59.168Z,19.37
2022-12-03T19:49:26.502Z,18.73
2022-12-03T19:51:53.752Z,19.97
2022-12-03T19:54:20.808Z,25.13
2022-12-03T19:56:47.842Z,23.07
2022-12-03T19:59:17.376Z,22.40
2022-12-03T20:01:44.489Z,22.83
2022-12-03T20:04:12.696Z,21.10
2022-12-03T20:06:40.444Z,21.77
2022-12-03T20:09:17.195Z,20.00
2022-12-03T20:11:45.989Z,18.53
2022-12-03T20:14:16.067Z,16.53
2022-12-03T20:16:45.111Z,18.33
2022-12-03T20:19:17.996Z,21.73
2022-12-03T20:21:45.507Z,19.37
2022-12-03T20:24:19.258Z,20.20
2022-12-03T20:26:46.353Z,24.77
2022-12-03T20:29:13.829Z,22.67
2022-12-03T20:31:40.869Z,16.40
2022-12-03T20:34:11.173Z,22.33
2022-12-03T20:36:42.298Z,20.47
2022-12-03T20:39:10.720Z,19.77
2022-12-03T20:41:38.290Z,19.90
2022-12-03T20:44:07.538Z,18.47
2022-12-03T20:46:34.811Z,22.00
2022-12-03T20:49:02.216Z,25.07
2022-12-03T20:51:31.062Z,22.10
2022-12-03T20:54:00.702Z,19.07
2022-12-03T20:56:35.653Z,25.40
2022-12-03T20:59:06.753Z,20.43
2022-12-03T21:01:36.029Z,19.67
2022-12-03T21:04:05.161Z,24.87
2022-12-03T21:06:35.960Z,19.37
2022-12-03T21:09:07.153Z,20.97
2022-12-03T21:11:35.987Z,20.47
2022-12-03T21:14:04.236Z,22.97
2022-12-03T21:17:05.665Z,21.57
2022-12-03T21:19:23.160Z,22.33
2022-12-03T21:21:50.166Z,23.43
2022-12-03T21:24:17.548Z,23.23
2022-12-03T21:26:44.534Z,22.63
2022-12-03T21:29:11.683Z,24.23
2022-12-03T21:31:40.041Z,24.33
2022-12-03T21:34:08.627Z,23.00
2022-12-03T21:36:36.108Z,28.40
2022-12-03T21:39:04.301Z,23.07
2022-12-03T21:41:31.929Z,23.40
2022-12-03T21:43:59.106Z,20.70
2022-12-03T21:47:11.089Z,20.50
2022-12-03T21:49:15.323Z,19.43
2022-12-03T21:51:42.315Z,27.37
2022-12-03T21:54:09.414Z,19.67
2022-12-03T21:56:36.535Z,23.57
2022-12-03T21:59:03.999Z,20.83
2022-12-03T22:01:31.206Z,20.50
2022-12-03T22:03:59.208Z,22.30
2022-12-03T22:06:27.215Z,23.30
2022-12-03T22:08:54.269Z,20.40
2022-12-03T22:11:24.374Z,21.40
2022-12-03T22:13:51.572Z,23.87
2022-12-03T22:16:21.296Z,22.53
2022-12-03T22:18:48.962Z,21.10
2022-12-03T22:21:19.747Z,20.50
2022-12-03T22:23:47.480Z,29.70
2022-12-03T22:26:17.793Z,17.80
2022-12-03T22:28:47.453Z,18.13
2022-12-03T22:31:16.415Z,20.60
2022-12-03T22:33:51.280Z,24.40
2022-12-03T22:36:21.599Z,22.07
2022-12-03T22:38:50.764Z,25.13
2022-12-03T22:41:19.247Z,19.73
2022-12-03T22:43:47.282Z,25.33
2022-12-03T22:46:16.150Z,23.63
2022-12-03T22:48:45.633Z,24.13
2022-12-03T22:51:23.009Z,23.43
2022-12-03T22:53:59.110Z,25.13
2022-12-03T22:56:27.980Z,22.50
2022-12-03T22:58:55.612Z,27.87
2022-12-03T23:01:26.442Z,22.77
2022-12-03T23:03:53.709Z,20.70
2022-12-03T23:06:21.889Z,27.37
2022-12-03T23:08:49.557Z,24.77
2022-12-03T23:11:19.979Z,30.37
2022-12-03T23:13:48.475Z,20.60
2022-12-03T23:16:23.959Z,23.60
2022-12-03T23:18:51.313Z,26.60
2022-12-03T23:21:29.927Z,21.40
2022-12-03T23:24:00.399Z,23.90
2022-12-03T23:26:28.772Z,26.30
2022-12-03T23:28:56.010Z,24.70
2022-12-03T23:31:24.959Z,24.00
2022-12-03T23:33:53.004Z,25.13
2022-12-03T23:36:21.325Z,24.43
2022-12-03T23:38:48.850Z,29.10
2022-12-03T23:41:19.939Z,25.70
2022-12-03T23:43:47.739Z,21.63
2022-12-03T23:46:19.427Z,22.03
2022-12-03T23:48:46.780Z,19.23
2022-12-03T23:51:17.568Z,27.13
2022-12-03T23:53:45.086Z,24.00
2022-12-03T23:56:19.681Z,25.63
2022-12-03T23:58:46.838Z,23.33
